Time;durP1;ratioP1;P1;durP2;ratioP2;P2;SDS_P1;SDS_P2;PMS_P1;PMS_P2;Temp;Humidity;BMP_temperature;BMP_pressure;BME280_temperature;BME280_humidity;BME280_pressure;Samples;Min_cycle;Max_cycle;Signal;HPM_P1;HPM_P2
2024/02/18 00:00:40;;;;;;;12.97;5.83;;;;;;;7.12;100.00;97910.72;5034314;28;20614;-69
2024/02/18 00:03:06;;;;;;;9.83;4.73;;;;;;;7.12;100.00;97905.50;5034246;28;20679;-69
2024/02/18 00:05:35;;;;;;;13.07;5.60;;;;;;;7.45;100.00;97907.19;5034978;28;20646;-69
2024/02/18 00:08:01;;;;;;;12.33;5.93;;;;;;;7.08;100.00;97904.06;5035002;28;20205;-69
2024/02/18 00:10:28;;;;;;;13.20;5.87;;;;;;;7.33;100.00;97907.28;5033982;28;20197;-69
2024/02/18 00:12:54;;;;;;;12.63;5.50;;;;;;;7.35;100.00;97903.59;5034030;28;20225;-69
2024/02/18 00:15:21;;;;;;;12.33;5.53;;;;;;;7.32;100.00;97913.50;5034672;28;20201;-69
2024/02/18 00:17:47;;;;;;;10.73;4.80;;;;;;;7.29;100.00;97903.25;5034870;28;20205;-69
2024/02/18 00:20:15;;;;;;;14.43;5.17;;;;;;;7.25;100.00;97900.97;5036401;28;20208;-69
2024/02/18 00:22:43;;;;;;;12.33;5.73;;;;;;;7.24;100.00;97902.75;5038153;28;20654;-69
2024/02/18 00:25:10;;;;;;;16.77;6.00;;;;;;;7.22;100.00;97903.81;5038198;28;20216;-69
2024/02/18 00:27:36;;;;;;;11.83;5.83;;;;;;;7.14;100.00;97898.31;5038668;28;20208;-69
2024/02/18 00:30:04;;;;;;;13.37;6.10;;;;;;;7.22;100.00;97896.81;5038267;28;20209;-69
2024/02/18 00:32:30;;;;;;;10.87;5.83;;;;;;;7.07;100.00;97899.75;5036849;28;20521;-69
2024/02/18 00:34:57;;;;;;;12.30;6.00;;;;;;;6.99;100.00;97891.63;5039063;28;20205;-69
2024/02/18 00:37:25;;;;;;;12.43;6.03;;;;;;;6.97;100.00;97885.66;5038261;28;20201;-69
2024/02/18 00:39:52;;;;;;;11.47;4.63;;;;;;;6.96;100.00;97878.75;5038058;28;20533;-69
2024/02/18 00:42:19;;;;;;;10.83;5.13;;;;;;;6.88;100.00;97881.13;5037248;28;20228;-69
2024/02/18 00:44:45;;;;;;;10.70;5.60;;;;;;;6.88;100.00;97875.88;5039757;28;20201;-69
2024/02/18 00:47:12;;;;;;;15.07;6.73;;;;;;;6.89;100.00;97872.31;5037664;28;20747;-69
2024/02/18 00:49:38;;;;;;;12.57;6.07;;;;;;;6.85;100.00;97873.50;5038361;28;20478;-69
2024/02/18 00:52:05;;;;;;;13.67;5.70;;;;;;;6.77;100.00;97875.81;5037024;28;20592;-69
2024/02/18 00:54:32;;;;;;;12.80;6.13;;;;;;;6.72;100.00;97880.56;5038124;28;20197;-69
2024/02/18 00:56:59;;;;;;;11.70;5.37;;;;;;;6.88;100.00;97866.22;5038051;28;20682;-69
2024/02/18 00:59:26;;;;;;;10.47;5.80;;;;;;;6.68;100.00;97876.50;5037809;28;20208;-69
2024/02/18 01:01:53;;;;;;;14.40;6.13;;;;;;;6.73;100.00;97877.00;5037295;28;20476;-69
2024/02/18 01:04:19;;;;;;;14.13;5.90;;;;;;;6.70;100.00;97875.44;5037268;28;20392;-69
2024/02/18 01:06:46;;;;;;;13.87;5.37;;;;;;;6.71;100.00;97885.00;5037774;28;20202;-69
2024/02/18 01:09:12;;;;;;;11.10;6.00;;;;;;;6.80;100.00;97883.47;5037377;28;20205;-69
2024/02/18 01:11:39;;;;;;;15.20;6.40;;;;;;;6.64;100.00;97885.56;5037760;28;20509;-69
2024/02/18 01:14:06;;;;;;;14.00;5.80;;;;;;;6.67;100.00;97887.97;5037766;28;20197;-69
2024/02/18 01:16:33;;;;;;;12.80;5.47;;;;;;;6.24;100.00;97889.41;5037207;28;20777;-69
2024/02/18 01:18:59;;;;;;;11.37;5.67;;;;;;;6.32;100.00;97892.31;5037401;28;20208;-69
2024/02/18 01:21:26;;;;;;;11.60;5.13;;;;;;;6.40;100.00;97897.00;5035993;28;20233;-69
2024/02/18 01:23:51;;;;;;;14.00;5.37;;;;;;;6.33;100.00;97896.59;5038113;28;20208;-69
2024/02/18 01:26:18;;;;;;;11.20;5.07;;;;;;;6.40;100.00;97886.50;5037455;28;20205;-69
2024/02/18 01:28:44;;;;;;;10.03;4.83;;;;;;;6.36;100.00;97893.75;5037350;28;20672;-69
2024/02/18 01:31:12;;;;;;;12.90;5.63;;;;;;;6.64;100.00;97893.41;5035862;28;20217;-69
2024/02/18 01:33:39;;;;;;;12.00;5.70;;;;;;;6.59;100.00;97889.47;5037145;28;20205;-69
2024/02/18 01:36:06;;;;;;;11.47;5.50;;;;;;;6.51;100.00;97876.94;5037106;28;20252;-69
2024/02/18 01:38:32;;;;;;;11.10;5.40;;;;;;;6.44;100.00;97880.97;5037377;28;20205;-69
2024/02/18 01:40:59;;;;;;;14.33;5.87;;;;;;;6.64;100.00;97879.50;5036857;28;20577;-69
2024/02/18 01:43:26;;;;;;;11.53;6.03;;;;;;;6.65;100.00;97880.19;5036178;28;20244;-69
2024/02/18 01:45:53;;;;;;;11.37;5.77;;;;;;;6.65;100.00;97873.31;5037629;28;20251;-69
2024/02/18 01:48:23;;;;;;;9.97;4.70;;;;;;;6.66;100.00;97871.38;5036504;28;20209;-69
2024/02/18 01:50:49;;;;;;;12.00;5.67;;;;;;;6.62;100.00;97878.75;5036352;28;20213;-69
2024/02/18 01:53:19;;;;;;;10.73;5.20;;;;;;;6.73;100.00;97871.78;5036887;28;20197;-69
2024/02/18 01:55:46;;;;;;;10.93;5.20;;;;;;;6.61;100.00;97867.44;5037728;28;20579;-69
2024/02/18 01:58:13;;;;;;;11.77;5.43;;;;;;;6.44;100.00;97864.41;5036958;28;20220;-69
2024/02/18 02:00:40;;;;;;;11.90;5.03;;;;;;;6.65;100.00;97866.28;5035974;28;20686;-69
2024/02/18 02:03:08;;;;;;;10.63;5.63;;;;;;;6.68;100.00;97863.41;5036561;28;20237;-69
2024/02/18 02:05:39;;;;;;;12.97;5.20;;;;;;;6.73;100.00;97866.53;5036808;28;20233;-69
2024/02/18 02:08:06;;;;;;;10.90;4.97;;;;;;;6.54;100.00;97860.97;5036738;28;20607;-69
2024/02/18 02:10:33;;;;;;;10.57;5.27;;;;;;;6.57;100.00;97849.44;5036662;28;20207;-69
2024/02/18 02:13:00;;;;;;;11.20;5.50;;;;;;;6.47;100.00;97859.78;5037146;28;20228;-69
2024/02/18 02:15:26;;;;;;;10.77;5.53;;;;;;;6.38;100.00;97857.84;5035571;28;20430;-69
2024/02/18 02:17:54;;;;;;;9.57;5.13;;;;;;;6.39;100.00;97851.66;5036559;28;20201;-69
2024/02/18 02:20:20;;;;;;;10.80;5.23;;;;;;;6.16;100.00;97851.66;5036529;28;20574;-69
2024/02/18 02:22:48;;;;;;;9.47;5.23;;;;;;;6.45;100.00;97850.38;5035544;28;20256;-69
2024/02/18 02:25:15;;;;;;;9.63;5.47;;;;;;;6.22;100.00;97859.06;5036141;28;20201;-69
2024/02/18 02:27:43;;;;;;;11.57;5.77;;;;;;;6.32;100.00;97854.84;5036716;28;20389;-69
2024/02/18 02:30:12;;;;;;;11.13;4.80;;;;;;;6.39;100.00;97843.81;5035733;28;20251;-70
2024/02/18 02:32:38;;;;;;;13.53;5.40;;;;;;;6.13;100.00;97849.25;5035359;28;20217;-69
2024/02/18 02:35:06;;;;;;;10.33;4.93;;;;;;;6.23;100.00;97858.94;5036590;28;20266;-69
2024/02/18 02:37:33;;;;;;;12.13;5.17;;;;;;;6.24;100.00;97852.78;5036330;28;20684;-69
2024/02/18 02:40:00;;;;;;;12.73;5.53;;;;;;;6.20;100.00;97851.31;5036123;28;20233;-69
2024/02/18 02:42:26;;;;;;;12.03;5.17;;;;;;;6.23;100.00;97851.09;5034752;28;20240;-69
2024/02/18 02:44:53;;;;;;;9.80;4.83;;;;;;;6.28;100.00;97848.16;5035159;28;20197;-69
2024/02/18 02:47:21;;;;;;;10.40;5.13;;;;;;;6.47;100.00;97843.25;5035739;28;20608;-69
2024/02/18 02:49:47;;;;;;;11.73;5.83;;;;;;;6.39;100.00;97849.03;5036357;28;20787;-69
2024/02/18 02:52:13;;;;;;;12.50;6.20;;;;;;;6.33;100.00;97852.09;5034742;28;20236;-69
2024/02/18 02:54:40;;;;;;;11.20;5.47;;;;;;;6.34;100.00;97850.31;5036120;28;20204;-69
2024/02/18 02:57:06;;;;;;;10.43;5.60;;;;;;;6.24;100.00;97852.78;5036163;28;20205;-69
2024/02/18 02:59:33;;;;;;;13.20;6.23;;;;;;;6.46;100.00;97850.25;5035462;28;20566;-69
2024/02/18 03:01:59;;;;;;;11.97;5.57;;;;;;;6.42;100.00;97851.41;5034377;28;20523;-69
2024/02/18 03:04:27;;;;;;;12.33;5.67;;;;;;;6.57;100.00;97850.28;5036253;28;20205;-69
2024/02/18 03:06:54;;;;;;;12.60;6.13;;;;;;;6.37;100.00;97850.91;5035785;28;20201;-69
2024/02/18 03:09:20;;;;;;;11.63;5.70;;;;;;;6.40;100.00;97848.09;5035433;28;20714;-69
2024/02/18 03:11:47;;;;;;;12.27;5.50;;;;;;;6.43;100.00;97836.53;5034634;28;20711;-69
2024/02/18 03:14:13;;;;;;;9.57;4.87;;;;;;;6.37;100.00;97832.59;5036582;28;20572;-69
2024/02/18 03:16:39;;;;;;;12.30;5.70;;;;;;;6.40;100.00;97832.38;5034886;28;20201;-69
2024/02/18 03:19:06;;;;;;;13.53;6.67;;;;;;;6.49;100.00;97831.72;5035993;28;20315;-69
2024/02/18 03:21:34;;;;;;;12.17;5.67;;;;;;;6.61;100.00;97822.94;5034995;28;20221;-69
2024/02/18 03:24:00;;;;;;;14.37;6.30;;;;;;;6.51;100.00;97828.97;5036175;28;20460;-69
2024/02/18 03:26:26;;;;;;;9.60;5.00;;;;;;;6.55;100.00;97823.38;5035262;28;20202;-69
2024/02/18 03:28:53;;;;;;;12.13;5.57;;;;;;;6.50;100.00;97820.25;5035421;28;20202;-69
2024/02/18 03:31:20;;;;;;;14.97;5.83;;;;;;;6.61;100.00;97820.31;5035057;28;20494;-69
2024/02/18 03:33:46;;;;;;;12.87;6.40;;;;;;;6.56;100.00;97821.59;5035811;28;20201;-69
2024/02/18 03:36:12;;;;;;;12.30;5.70;;;;;;;6.28;100.00;97833.28;5036007;28;20202;-69
2024/02/18 03:38:40;;;;;;;10.20;4.80;;;;;;;6.65;100.00;97821.75;5035414;28;20672;-69
2024/02/18 03:41:07;;;;;;;8.87;5.07;;;;;;;6.45;100.00;97827.63;5034297;28;20413;-69
2024/02/18 03:43:34;;;;;;;13.47;6.90;;;;;;;6.49;100.00;97826.47;5032741;28;20225;-69
2024/02/18 03:46:01;;;;;;;12.37;5.17;;;;;;;6.36;100.00;97827.47;5035738;28;20698;-69
2024/02/18 03:48:28;;;;;;;15.27;5.90;;;;;;;6.44;100.00;97828.59;5034586;28;20206;-69
2024/02/18 03:50:55;;;;;;;15.40;6.00;;;;;;;6.39;100.00;97820.25;5034619;28;20638;-69
2024/02/18 03:53:21;;;;;;;10.93;5.50;;;;;;;6.42;100.00;97822.63;5034835;28;20204;-69
2024/02/18 03:55:49;;;;;;;11.10;5.33;;;;;;;6.48;100.00;97809.09;5033801;28;20216;-69
2024/02/18 03:58:15;;;;;;;10.93;5.47;;;;;;;6.22;100.00;97812.81;5031946;28;20668;-69
2024/02/18 04:00:45;;;;;;;17.47;6.20;;;;;;;6.35;100.00;97810.94;5032237;28;20212;-69
2024/02/18 04:03:12;;;;;;;12.60;6.10;;;;;;;6.34;100.00;97816.25;5032965;28;20331;-69
2024/02/18 04:05:39;;;;;;;13.03;6.50;;;;;;;6.37;100.00;97816.88;5033793;28;20201;-69
2024/02/18 04:08:05;;;;;;;14.60;6.03;;;;;;;6.10;100.00;97826.75;5033805;28;20225;-69
2024/02/18 04:10:32;;;;;;;16.97;6.80;;;;;;;6.22;100.00;97818.03;5034132;28;20483;-69
2024/02/18 04:13:00;;;;;;;11.63;5.00;;;;;;;6.37;100.00;97821.28;5033260;28;20221;-69
2024/02/18 04:15:27;;;;;;;11.93;5.70;;;;;;;6.09;100.00;97816.41;5034144;28;20232;-69
2024/02/18 04:17:54;;;;;;;16.87;6.77;;;;;;;5.91;100.00;97819.53;5034694;28;20584;-69
2024/02/18 04:20:21;;;;;;;13.03;5.63;;;;;;;6.04;100.00;97824.56;5035216;28;20792;-69
2024/02/18 04:22:48;;;;;;;13.07;6.10;;;;;;;6.08;100.00;97825.19;5033757;28;20229;-69
2024/02/18 04:25:15;;;;;;;11.90;6.37;;;;;;;6.04;100.00;97818.53;5034686;28;20228;-69
2024/02/18 04:27:42;;;;;;;12.70;5.90;;;;;;;6.05;100.00;97821.03;5035408;28;20448;-69
2024/02/18 04:30:10;;;;;;;11.40;5.33;;;;;;;6.20;100.00;97812.06;5034986;28;20217;-69
2024/02/18 04:32:37;;;;;;;13.57;6.23;;;;;;;5.59;100.00;97813.13;5033974;28;20217;-69
2024/02/18 04:35:04;;;;;;;13.17;6.17;;;;;;;5.57;100.00;97813.19;5035168;28;20198;-69
2024/02/18 04:37:30;;;;;;;13.23;6.40;;;;;;;5.49;100.00;97814.72;5034685;28;20351;-70
2024/02/18 04:39:58;;;;;;;14.10;7.37;;;;;;;5.49;100.00;97807.69;5034902;28;20201;-70
2024/02/18 04:42:24;;;;;;;12.47;6.10;;;;;;;5.50;100.00;97805.94;5033819;28;20225;-69
2024/02/18 04:44:51;;;;;;;13.10;6.70;;;;;;;5.40;100.00;97810.13;5034264;28;20212;-69
2024/02/18 04:47:19;;;;;;;14.10;7.47;;;;;;;5.43;100.00;97806.47;5035035;28;20201;-69
2024/02/18 04:49:45;;;;;;;13.90;6.50;;;;;;;5.22;100.00;97811.41;5034907;28;20208;-69
2024/02/18 04:52:12;;;;;;;15.20;6.40;;;;;;;5.28;100.00;97815.38;5033651;28;20236;-69
2024/02/18 04:54:38;;;;;;;13.17;6.60;;;;;;;5.30;100.00;97814.31;5034272;28;20201;-69
2024/02/18 04:57:05;;;;;;;20.60;7.33;;;;;;;5.34;100.00;97815.78;5035556;28;20405;-68
2024/02/18 04:59:33;;;;;;;12.10;6.10;;;;;;;5.41;100.00;97809.19;5034355;28;20531;-68
2024/02/18 05:02:00;;;;;;;13.80;5.70;;;;;;;5.32;100.00;97812.44;5033362;28;20361;-68
2024/02/18 05:04:31;;;;;;;11.50;6.03;;;;;;;5.53;100.00;97809.13;5034030;28;20715;-69
2024/02/18 05:06:58;;;;;;;14.23;7.03;;;;;;;5.31;100.00;97810.78;5035766;28;20242;-68
2024/02/18 05:09:24;;;;;;;14.10;6.37;;;;;;;5.03;100.00;97810.19;5037786;28;20208;-70
2024/02/18 05:11:51;;;;;;;10.00;6.17;;;;;;;5.09;100.00;97812.34;5038045;28;20225;-68
2024/02/18 05:14:17;;;;;;;12.03;6.40;;;;;;;5.11;100.00;97808.69;5037985;28;20496;-68
2024/02/18 05:16:45;;;;;;;11.60;6.27;;;;;;;4.93;100.00;97807.34;5037757;28;20246;-69
2024/02/18 05:19:12;;;;;;;12.37;6.47;;;;;;;4.83;100.00;97814.13;5038494;28;20209;-68
2024/02/18 05:21:40;;;;;;;13.67;6.27;;;;;;;5.07;100.00;97804.63;5037208;28;20231;-68
2024/02/18 05:24:06;;;;;;;15.40;6.73;;;;;;;4.70;100.00;97806.41;5036967;28;20252;-68
2024/02/18 05:26:33;;;;;;;11.33;6.00;;;;;;;4.76;100.00;97811.22;5037808;28;20697;-68
2024/02/18 05:28:59;;;;;;;15.80;6.43;;;;;;;4.70;100.00;97801.19;5039170;28;20197;-67
2024/02/18 05:31:27;;;;;;;13.77;6.77;;;;;;;4.93;100.00;97806.53;5036767;28;20235;-67
2024/02/18 05:33:54;;;;;;;14.70;6.73;;;;;;;4.89;100.00;97802.47;5037985;28;20567;-68
2024/02/18 05:36:21;;;;;;;15.33;6.00;;;;;;;4.62;100.00;97800.88;5038232;28;20208;-68
2024/02/18 05:38:49;;;;;;;12.40;5.73;;;;;;;4.86;100.00;97803.50;5037509;28;20620;-67
2024/02/18 05:41:16;;;;;;;11.27;5.97;;;;;;;4.75;100.00;97799.09;5036332;28;20227;-67
2024/02/18 05:43:43;;;;;;;13.53;5.83;;;;;;;4.52;100.00;97807.63;5038185;28;20224;-68
2024/02/18 05:46:10;;;;;;;12.97;6.37;;;;;;;4.70;100.00;97806.41;5037852;28;20598;-68
2024/02/18 05:48:38;;;;;;;12.00;5.70;;;;;;;4.60;100.00;97800.16;5037272;28;20201;-68
2024/02/18 05:51:05;;;;;;;11.20;5.47;;;;;;;4.64;100.00;97801.63;5036604;28;20247;-67
2024/02/18 05:53:31;;;;;;;13.63;6.57;;;;;;;4.45;100.00;97801.16;5037195;28;20729;-68
2024/02/18 05:55:59;;;;;;;12.63;5.63;;;;;;;4.66;100.00;97795.34;5037128;28;20211;-67
2024/02/18 05:58:26;;;;;;;14.13;6.23;;;;;;;4.45;100.00;97802.00;5037129;28;20213;-68
2024/02/18 06:00:52;;;;;;;11.80;5.47;;;;;;;4.47;100.00;97792.28;5036616;28;20682;-68
2024/02/18 06:03:19;;;;;;;13.67;6.60;;;;;;;4.41;100.00;97797.09;5036598;28;20227;-68
2024/02/18 06:05:45;;;;;;;11.43;6.17;;;;;;;4.48;100.00;97793.13;5037159;28;20204;-67
2024/02/18 06:08:12;;;;;;;13.13;6.33;;;;;;;4.48;100.00;97793.97;5037169;28;20207;-68
2024/02/18 06:10:38;;;;;;;14.07;7.27;;;;;;;4.32;100.00;97795.09;5036888;28;20479;-68
2024/02/18 06:13:06;;;;;;;13.53;6.40;;;;;;;4.55;100.00;97792.59;5036956;28;20587;-69
2024/02/18 06:15:33;;;;;;;14.13;6.47;;;;;;;4.37;100.00;97795.63;5036810;28;20214;-68
2024/02/18 06:18:00;;;;;;;13.37;7.00;;;;;;;4.43;100.00;97797.81;5036142;28;20214;-68
2024/02/18 06:20:28;;;;;;;18.23;7.13;;;;;;;4.49;100.00;97800.88;5037449;28;20208;-68
2024/02/18 06:22:55;;;;;;;18.77;7.07;;;;;;;4.40;100.00;97793.66;5036269;28;20232;-69
2024/02/18 06:25:21;;;;;;;13.53;6.27;;;;;;;4.44;100.00;97789.03;5037304;28;20204;-67
2024/02/18 06:27:48;;;;;;;15.53;6.93;;;;;;;4.44;100.00;97795.13;5037030;28;20678;-68
2024/02/18 06:30:17;;;;;;;16.77;6.57;;;;;;;4.71;100.00;97789.81;5037903;28;20210;-70
2024/02/18 06:32:43;;;;;;;11.63;6.20;;;;;;;4.57;100.00;97790.75;5035590;28;20243;-69
2024/02/18 06:35:10;;;;;;;13.50;6.27;;;;;;;4.52;100.00;97786.75;5036794;28;20201;-67
2024/02/18 06:37:36;;;;;;;12.47;5.90;;;;;;;4.51;100.00;97790.31;5037217;28;20213;-68
2024/02/18 06:40:03;;;;;;;15.33;6.50;;;;;;;4.46;100.00;97788.00;5037073;28;20200;-69
2024/02/18 06:42:30;;;;;;;14.97;6.17;;;;;;;4.47;100.00;97787.06;5035520;28;20227;-68
2024/02/18 06:44:57;;;;;;;14.10;6.97;;;;;;;4.30;100.00;97786.53;5036879;28;20667;-67
2024/02/18 06:47:24;;;;;;;10.40;5.37;;;;;;;4.46;100.00;97787.19;5036473;28;20215;-69
2024/02/18 06:49:51;;;;;;;14.43;6.70;;;;;;;4.45;100.00;97790.72;5036326;28;20205;-68
2024/02/18 06:52:18;;;;;;;15.43;7.17;;;;;;;4.34;100.00;97786.22;5036228;28;20235;-69
2024/02/18 06:54:45;;;;;;;18.07;7.17;;;;;;;4.46;100.00;97792.41;5036584;28;20203;-70
2024/02/18 06:57:11;;;;;;;17.87;8.00;;;;;;;4.44;100.00;97778.59;5035846;28;20212;-67
2024/02/18 06:59:38;;;;;;;12.90;6.37;;;;;;;4.64;100.00;97780.72;5036508;28;20588;-67
2024/02/18 07:02:04;;;;;;;14.63;6.80;;;;;;;4.68;100.00;97787.41;5035808;28;20232;-69
2024/02/18 07:04:32;;;;;;;13.90;6.93;;;;;;;4.82;100.00;97784.69;5035570;28;20231;-67
2024/02/18 07:06:59;;;;;;;13.07;5.73;;;;;;;4.75;100.00;97783.44;5036311;28;20686;-68
2024/02/18 07:09:25;;;;;;;13.87;6.37;;;;;;;4.77;100.00;97792.00;5036184;28;20215;-67
2024/02/18 07:11:52;;;;;;;13.03;6.07;;;;;;;4.78;100.00;97783.25;5035410;28;20255;-69
2024/02/18 07:14:18;;;;;;;15.00;6.10;;;;;;;4.79;100.00;97785.75;5036102;28;20223;-69
2024/02/18 07:16:45;;;;;;;13.73;6.53;;;;;;;4.84;100.00;97778.44;5035686;28;20212;-69
2024/02/18 07:19:11;;;;;;;12.87;6.10;;;;;;;5.05;100.00;97782.16;5035670;28;20216;-68
2024/02/18 07:21:39;;;;;;;16.33;6.80;;;;;;;5.26;100.00;97791.13;5034893;28;20445;-68
2024/02/18 07:24:06;;;;;;;16.40;6.70;;;;;;;4.93;100.00;97785.63;5036375;28;20220;-69
2024/02/18 07:26:33;;;;;;;13.47;6.73;;;;;;;4.88;100.00;97775.47;5035990;28;20269;-69
2024/02/18 07:28:59;;;;;;;14.63;6.57;;;;;;;4.95;100.00;97788.97;5035354;28;20237;-69
2024/02/18 07:31:26;;;;;;;16.20;7.37;;;;;;;5.04;100.00;97789.19;5034646;28;20232;-67
2024/02/18 07:33:52;;;;;;;15.07;6.70;;;;;;;5.10;100.00;97780.88;5036532;28;20194;-69
2024/02/18 07:36:19;;;;;;;13.13;6.80;;;;;;;5.26;100.00;97778.91;5034331;28;20224;-69
2024/02/18 07:38:46;;;;;;;17.45;8.32;;;;;;;5.35;100.00;97774.81;5032545;28;21141;-69
2024/02/18 07:41:13;;;;;;;13.70;6.73;;;;;;;5.51;100.00;97773.59;5031777;28;20235;-67
2024/02/18 07:43:39;;;;;;;16.13;7.20;;;;;;;5.53;100.00;97771.72;5033568;28;20225;-66
2024/02/18 07:46:06;;;;;;;17.17;8.30;;;;;;;5.66;100.00;97762.88;5034906;28;20205;-67
2024/02/18 07:48:32;;;;;;;17.67;8.33;;;;;;;5.68;100.00;97768.00;5034307;28;20197;-69
2024/02/18 07:50:59;;;;;;;13.93;6.80;;;;;;;5.65;100.00;97769.06;5033693;28;20248;-67
2024/02/18 07:53:25;;;;;;;14.73;6.97;;;;;;;5.79;100.00;97761.09;5032595;28;20193;-69
2024/02/18 07:55:53;;;;;;;25.57;9.03;;;;;;;6.05;100.00;97753.00;5034735;28;20197;-67
2024/02/18 07:58:20;;;;;;;25.20;10.30;;;;;;;5.99;100.00;97751.78;5033893;28;20205;-68
2024/02/18 08:00:46;;;;;;;27.93;10.23;;;;;;;6.12;100.00;97749.00;5033272;28;20691;-69
2024/02/18 08:03:13;;;;;;;23.60;9.67;;;;;;;6.28;100.00;97732.97;5033785;28;20236;-68
2024/02/18 08:05:41;;;;;;;23.10;9.23;;;;;;;6.41;100.00;97739.78;5032276;28;20210;-69
2024/02/18 08:08:08;;;;;;;23.63;10.93;;;;;;;6.57;100.00;97740.31;5033327;28;20202;-70
2024/02/18 08:10:34;;;;;;;20.97;9.33;;;;;;;6.58;100.00;97739.34;5033201;28;20246;-69
2024/02/18 08:13:02;;;;;;;25.23;10.97;;;;;;;6.91;100.00;97734.97;5032647;28;20715;-69
2024/02/18 08:15:29;;;;;;;19.80;9.40;;;;;;;6.79;100.00;97729.84;5032694;28;20204;-71
2024/02/18 08:17:55;;;;;;;19.23;8.40;;;;;;;6.59;100.00;97733.16;5033988;28;21059;-68
2024/02/18 08:20:22;;;;;;;19.83;9.40;;;;;;;6.79;100.00;97733.28;5034838;28;20216;-67
2024/02/18 08:22:49;;;;;;;18.47;8.77;;;;;;;7.07;100.00;97732.00;5034472;28;20221;-70
2024/02/18 08:25:16;;;;;;;21.43;10.50;;;;;;;7.08;100.00;97725.81;5035193;28;20236;-67
2024/02/18 08:27:42;;;;;;;19.83;10.10;;;;;;;7.04;100.00;97725.22;5033404;28;20676;-67
2024/02/18 08:30:11;;;;;;;19.37;9.53;;;;;;;7.29;100.00;97725.78;5035027;28;20205;-69
2024/02/18 08:32:38;;;;;;;17.77;8.97;;;;;;;7.20;100.00;97711.72;5032863;28;20240;-68
2024/02/18 08:35:05;;;;;;;20.27;8.70;;;;;;;7.47;100.00;97713.84;5034197;28;20262;-69
2024/02/18 08:37:32;;;;;;;24.87;9.63;;;;;;;7.39;100.00;97716.22;5033664;28;20205;-68
2024/02/18 08:39:58;;;;;;;25.07;9.07;;;;;;;7.63;100.00;97713.44;5035061;28;20202;-70
2024/02/18 08:42:25;;;;;;;21.95;9.57;;;;;;;7.55;100.00;97710.59;5035224;28;20435;-69
2024/02/18 08:44:52;;;;;;;18.37;8.23;;;;;;;7.46;100.00;97712.16;5038708;28;20228;-69
2024/02/18 08:47:19;;;;;;;23.07;9.40;;;;;;;7.72;100.00;97718.78;5038070;28;20681;-67
2024/02/18 08:49:46;;;;;;;18.30;8.83;;;;;;;7.60;100.00;97711.91;5037770;28;20634;-69
2024/02/18 08:52:12;;;;;;;21.17;9.30;;;;;;;7.51;100.00;97702.13;5037161;28;20229;-66
2024/02/18 08:54:42;;;;;;;19.80;10.27;;;;;;;7.66;100.00;97702.69;5037638;28;20304;-68
2024/02/18 08:57:08;;;;;;;17.83;9.43;;;;;;;7.86;100.00;97697.50;5039163;28;20201;-67
2024/02/18 08:59:35;;;;;;;20.23;9.03;;;;;;;7.96;100.00;97696.59;5038047;28;20919;-69
2024/02/18 09:02:01;;;;;;;17.53;8.93;;;;;;;7.88;100.00;97695.59;5037659;28;20359;-69
2024/02/18 09:04:29;;;;;;;21.67;8.73;;;;;;;8.20;100.00;97680.69;5037181;28;20233;-68
2024/02/18 09:06:56;;;;;;;18.70;9.50;;;;;;;8.31;100.00;97681.44;5038324;28;20201;-67
2024/02/18 09:09:22;;;;;;;21.97;9.30;;;;;;;8.31;100.00;97675.34;5037280;28;20206;-67
2024/02/18 09:11:49;;;;;;;20.53;9.47;;;;;;;8.38;100.00;97681.75;5036659;28;21055;-68
2024/02/18 09:14:15;;;;;;;21.27;10.33;;;;;;;8.35;100.00;97680.22;5037861;28;20200;-69
2024/02/18 09:16:42;;;;;;;20.37;9.57;;;;;;;8.57;100.00;97675.63;5037142;28;20212;-70
2024/02/18 09:19:08;;;;;;;22.73;9.37;;;;;;;8.73;100.00;97673.38;5037859;28;20212;-69
2024/02/18 09:21:36;;;;;;;18.53;8.47;;;;;;;9.09;100.00;97671.03;5036891;28;20229;-70
2024/02/18 09:24:03;;;;;;;21.63;9.87;;;;;;;9.02;100.00;97673.50;5037871;28;20711;-70
2024/02/18 09:26:29;;;;;;;19.77;7.97;;;;;;;9.18;100.00;97672.03;5036672;28;20201;-70
2024/02/18 09:28:56;;;;;;;28.40;10.70;;;;;;;9.40;100.00;97669.19;5038472;28;20211;-67
2024/02/18 09:31:22;;;;;;;27.37;11.33;;;;;;;9.60;100.00;97660.34;5036562;28;20311;-69
2024/02/18 09:33:49;;;;;;;23.03;10.63;;;;;;;9.68;100.00;97662.16;5036593;28;20216;-70
2024/02/18 09:36:15;;;;;;;26.60;10.40;;;;;;;9.89;100.00;97656.75;5037880;28;20564;-69
2024/02/18 09:38:43;;;;;;;24.13;11.07;;;;;;;10.23;100.00;97648.31;5037526;28;20209;-68
2024/02/18 09:41:16;;;;;;;23.87;9.07;;;;;;;10.19;100.00;97657.47;5035890;28;20255;-69
2024/02/18 09:43:45;;;;;;;24.50;9.90;;;;;;;10.44;100.00;97655.09;5036394;28;20211;-70
2024/02/18 09:46:14;;;;;;;21.20;9.23;;;;;;;10.41;100.00;97649.25;5036418;28;20281;-68
2024/02/18 09:48:41;;;;;;;18.50;8.90;;;;;;;10.78;100.00;97642.22;5036078;28;20212;-69
2024/02/18 09:51:10;;;;;;;18.20;8.17;;;;;;;10.89;100.00;97639.41;5034478;28;20534;-69
2024/02/18 09:53:37;;;;;;;21.50;9.43;;;;;;;10.59;100.00;97631.72;5036740;28;20212;-70
2024/02/18 09:56:06;;;;;;;19.30;9.57;;;;;;;11.24;100.00;97624.50;5037362;28;20676;-69
2024/02/18 09:58:33;;;;;;;20.87;7.17;;;;;;;10.91;100.00;97625.09;5035885;28;20304;-68
2024/02/18 10:01:01;;;;;;;17.73;6.97;;;;;;;11.53;100.00;97620.72;5035880;28;21037;-69
2024/02/18 10:03:28;;;;;;;21.30;8.97;;;;;;;11.60;100.00;97617.34;5037195;28;20220;-68
2024/02/18 10:05:55;;;;;;;16.13;7.43;;;;;;;11.24;100.00;97608.66;5036952;28;20208;-70
2024/02/18 10:08:21;;;;;;;19.37;8.97;;;;;;;11.43;100.00;97609.41;5035943;28;20213;-69
2024/02/18 10:10:48;;;;;;;18.77;8.37;;;;;;;11.25;100.00;97610.34;5035316;28;20205;-68
2024/02/18 10:13:16;;;;;;;17.53;8.23;;;;;;;11.62;100.00;97606.63;5036811;28;20935;-68
2024/02/18 10:15:42;;;;;;;22.33;8.57;;;;;;;11.20;100.00;97608.16;5036859;28;20608;-69
2024/02/18 10:18:10;;;;;;;19.30;9.00;;;;;;;11.58;100.00;97597.34;5035245;28;20258;-70
2024/02/18 10:20:37;;;;;;;19.30;8.60;;;;;;;11.74;100.00;97594.88;5035518;28;21291;-70
2024/02/18 10:23:04;;;;;;;21.63;9.63;;;;;;;11.99;100.00;97594.94;5034757;28;20593;-69
2024/02/18 10:25:31;;;;;;;17.03;7.20;;;;;;;11.88;100.00;97595.16;5036030;28;20237;-70
2024/02/18 10:27:58;;;;;;;21.97;7.50;;;;;;;11.87;100.00;97590.88;5034421;28;20206;-70
2024/02/18 10:30:26;;;;;;;16.97;6.87;;;;;;;12.33;100.00;97591.41;5035706;28;20209;-68
2024/02/18 10:32:53;;;;;;;22.43;8.70;;;;;;;12.55;100.00;97590.88;5034254;28;20236;-68
2024/02/18 10:35:19;;;;;;;18.23;7.67;;;;;;;12.35;100.00;97584.13;5037018;28;20201;-69
2024/02/18 10:37:49;;;;;;;16.13;6.67;;;;;;;12.90;100.00;97585.47;5036248;28;20213;-68
2024/02/18 10:40:25;;;;;;;15.73;6.07;;;;;;;13.26;100.00;97571.03;5037005;28;20573;-68
2024/02/18 10:42:52;;;;;;;19.63;8.03;;;;;;;12.86;100.00;97569.06;5034194;28;20229;-68
2024/02/18 10:45:21;;;;;;;17.83;7.60;;;;;;;13.04;100.00;97571.63;5035141;28;20229;-70
2024/02/18 10:47:53;;;;;;;20.23;7.80;;;;;;;13.01;100.00;97561.38;5036041;28;20233;-69
2024/02/18 10:50:22;;;;;;;19.60;7.43;;;;;;;13.39;100.00;97559.03;5035737;28;20215;-69
2024/02/18 10:52:57;;;;;;;13.60;5.70;;;;;;;13.63;100.00;97549.28;5033086;28;20679;-69
2024/02/18 10:55:31;;;;;;;12.87;5.60;;;;;;;13.36;100.00;97545.25;5035778;28;20207;-69
2024/02/18 10:58:02;;;;;;;14.80;6.43;;;;;;;13.67;100.00;97545.31;5034212;28;20248;-70
2024/02/18 11:00:31;;;;;;;13.20;5.83;;;;;;;13.45;100.00;97538.00;5034529;28;20259;-70
2024/02/18 11:03:06;;;;;;;17.10;7.20;;;;;;;13.54;100.00;97533.53;5033414;28;20225;-71
2024/02/18 11:05:35;;;;;;;12.47;5.33;;;;;;;13.38;100.00;97535.31;5034780;28;20227;-69
2024/02/18 11:08:02;;;;;;;16.73;6.77;;;;;;;13.33;100.00;97534.97;5034224;28;20205;-71
2024/02/18 11:10:30;;;;;;;12.07;5.43;;;;;;;13.63;100.00;97517.50;5035218;28;20224;-69
2024/02/18 11:12:57;;;;;;;18.03;6.73;;;;;;;13.76;100.00;97515.19;5035093;28;20228;-68
2024/02/18 11:15:23;;;;;;;14.00;6.00;;;;;;;13.83;100.00;97513.50;5036186;28;20205;-69
2024/02/18 11:17:51;;;;;;;18.40;6.47;;;;;;;14.08;100.00;97512.53;5036020;28;20606;-69
2024/02/18 11:20:20;;;;;;;15.33;6.03;;;;;;;14.55;100.00;97505.47;5035851;28;21318;-70
2024/02/18 11:22:47;;;;;;;12.50;5.77;;;;;;;14.51;100.00;97504.16;5034430;28;20221;-70